Time;durP1;ratioP1;P1;durP2;ratioP2;P2;SDS_P1;SDS_P2;PMS_P1;PMS_P2;Temp;Humidity;BMP_temperature;BMP_pressure;BME280_temperature;BME280_humidity;BME280_pressure;Samples;Min_cycle;Max_cycle;Signal;HPM_P1;HPM_P2
2021/10/04 00:01:03;;;;;;;11.40;6.82;;;13.90;91.60;;;;;;5011015;28;20031;-49
2021/10/04 00:03:29;;;;;;;10.68;7.20;;;14.00;91.60;;;;;;5009195;28;20025;-49
2021/10/04 00:05:55;;;;;;;11.52;6.90;;;14.00;91.60;;;;;;5009673;28;20037;-50
2021/10/04 00:08:21;;;;;;;17.90;7.47;;;14.00;91.40;;;;;;5009302;28;20026;-47
2021/10/04 00:10:48;;;;;;;8.90;7.05;;;14.10;91.30;;;;;;5008024;28;20036;-49
2021/10/04 00:13:13;;;;;;;12.45;7.05;;;14.30;91.10;;;;;;5010474;28;20040;-50
2021/10/04 00:15:39;;;;;;;10.02;6.75;;;14.50;91.00;;;;;;4955168;28;20401;-50
2021/10/04 00:18:05;;;;;;;10.90;7.40;;;14.60;90.70;;;;;;5004951;28;20030;-48
2021/10/04 00:20:31;;;;;;;13.02;7.63;;;14.70;90.50;;;;;;5010352;28;20438;-50
2021/10/04 00:22:58;;;;;;;16.17;7.13;;;14.60;90.50;;;;;;5009440;28;20038;-50
2021/10/04 00:25:24;;;;;;;11.52;6.90;;;14.50;90.70;;;;;;5009174;28;20026;-50
2021/10/04 00:27:50;;;;;;;21.45;10.68;;;14.50;90.70;;;;;;5006719;28;20050;-48
2021/10/04 00:30:16;;;;;;;24.08;13.50;;;14.50;90.80;;;;;;5008668;28;20038;-50
2021/10/04 00:32:49;;;;;;;15.15;11.50;;;14.60;90.70;;;;;;5013243;28;20030;-50
2021/10/04 00:35:17;;;;;;;16.70;10.48;;;14.60;90.60;;;;;;5013812;28;20413;-48
2021/10/04 00:37:43;;;;;;;12.85;10.52;;;14.80;90.60;;;;;;5012992;28;20048;-49
2021/10/04 00:40:13;;;;;;;12.93;10.07;;;14.80;90.40;;;;;;5016276;28;20053;-50
2021/10/04 00:42:40;;;;;;;12.95;9.27;;;14.90;90.30;;;;;;4996908;28;20045;-50
2021/10/04 00:45:07;;;;;;;18.98;10.48;;;14.90;90.30;;;;;;5012617;28;20044;-50
2021/10/04 00:47:33;;;;;;;14.75;10.50;;;14.90;90.20;;;;;;5009942;28;20034;-50
2021/10/04 00:49:59;;;;;;;15.05;9.48;;;15.00;90.20;;;;;;5013659;28;20164;-48
2021/10/04 00:52:25;;;;;;;11.02;8.82;;;14.70;90.30;;;;;;5013809;28;20084;-50
2021/10/04 00:54:50;;;;;;;11.93;9.57;;;14.30;91.00;;;;;;5014528;28;20038;-49
2021/10/04 00:57:18;;;;;;;10.00;8.20;;;14.20;91.20;;;;;;5015597;28;20022;-48
2021/10/04 00:59:45;;;;;;;16.58;8.98;;;14.20;91.20;;;;;;5013605;28;20175;-50
2021/10/04 01:02:11;;;;;;;13.00;8.07;;;14.00;91.50;;;;;;5012485;28;20056;-49
2021/10/04 01:04:37;;;;;;;14.75;8.85;;;14.10;91.40;;;;;;5013025;28;20081;-50
2021/10/04 01:07:03;;;;;;;11.68;8.25;;;14.10;91.30;;;;;;4989443;28;20066;-51
2021/10/04 01:09:28;;;;;;;11.27;7.88;;;14.10;91.40;;;;;;4997512;28;20034;-48
2021/10/04 01:11:57;;;;;;;13.07;8.25;;;14.10;91.40;;;;;;5014019;28;20034;-49
2021/10/04 01:14:23;;;;;;;14.10;8.00;;;14.20;91.20;;;;;;5012876;28;20037;-49
2021/10/04 01:16:50;;;;;;;15.45;8.52;;;14.30;91.00;;;;;;5013473;28;20026;-48
2021/10/04 01:19:15;;;;;;;16.90;9.05;;;14.20;91.20;;;;;;5013995;28;20382;-49
2021/10/04 01:21:41;;;;;;;11.82;8.88;;;14.30;91.00;;;;;;5013522;28;20030;-48
2021/10/04 01:24:09;;;;;;;13.13;8.63;;;14.40;91.00;;;;;;5011689;28;20367;-50
2021/10/04 01:26:35;;;;;;;13.75;9.93;;;14.40;90.90;;;;;;5012191;28;20113;-49
2021/10/04 01:29:01;;;;;;;12.57;9.02;;;14.50;90.70;;;;;;5015322;28;20389;-48
2021/10/04 01:31:27;;;;;;;12.70;8.55;;;14.40;90.70;;;;;;5012546;28;20029;-50
2021/10/04 01:33:55;;;;;;;14.45;8.70;;;14.50;90.80;;;;;;4989178;28;20061;-49
2021/10/04 01:36:24;;;;;;;11.30;9.20;;;14.50;90.70;;;;;;4991514;28;20041;-50
2021/10/04 01:38:51;;;;;;;15.48;8.82;;;14.60;90.60;;;;;;5015282;28;20123;-48
2021/10/04 01:41:17;;;;;;;12.05;8.23;;;14.60;90.60;;;;;;4993903;28;20044;-49
2021/10/04 01:43:44;;;;;;;18.10;9.30;;;14.60;90.50;;;;;;5010812;28;20026;-49
2021/10/04 01:46:10;;;;;;;15.40;9.13;;;14.60;90.50;;;;;;5012106;28;20034;-51
2021/10/04 01:48:38;;;;;;;16.35;9.38;;;14.60;90.50;;;;;;5012655;28;20088;-49
2021/10/04 01:51:04;;;;;;;13.18;9.25;;;14.60;90.50;;;;;;5012424;28;20033;-48
2021/10/04 01:53:30;;;;;;;11.52;8.73;;;14.60;90.40;;;;;;4995687;28;20061;-50
2021/10/04 01:55:57;;;;;;;16.10;8.38;;;14.60;90.40;;;;;;5012346;28;20038;-49
2021/10/04 01:58:23;;;;;;;14.68;8.00;;;14.40;90.70;;;;;;5013125;28;20030;-51
2021/10/04 02:00:49;;;;;;;13.68;8.30;;;14.30;90.90;;;;;;5014616;28;20072;-49
2021/10/04 02:03:15;;;;;;;12.20;8.45;;;13.90;91.50;;;;;;5010148;28;20077;-49
2021/10/04 02:05:44;;;;;;;15.00;8.95;;;13.80;92.00;;;;;;5006614;28;20088;-50
2021/10/04 02:08:10;;;;;;;13.45;8.57;;;13.70;92.60;;;;;;5013677;28;20053;-50
2021/10/04 02:10:38;;;;;;;11.77;8.68;;;13.70;92.80;;;;;;5011550;28;20066;-51
2021/10/04 02:13:06;;;;;;;11.85;8.15;;;13.70;92.70;;;;;;5006136;28;20137;-50
2021/10/04 02:15:32;;;;;;;17.67;8.63;;;13.80;92.90;;;;;;5014723;28;20370;-49
2021/10/04 02:17:59;;;;;;;14.48;8.65;;;13.80;93.00;;;;;;5011108;28;20040;-50
2021/10/04 02:20:28;;;;;;;14.88;9.82;;;13.80;93.20;;;;;;5012556;28;20026;-50
2021/10/04 02:22:54;;;;;;;12.43;9.10;;;13.60;93.60;;;;;;5010359;28;20037;-48
2021/10/04 02:25:21;;;;;;;16.63;8.25;;;13.50;93.70;;;;;;5014158;28;20109;-49
2021/10/04 02:27:47;;;;;;;14.32;9.52;;;13.60;93.90;;;;;;5008934;28;20029;-50
2021/10/04 02:30:19;;;;;;;11.95;8.68;;;13.60;94.00;;;;;;5014163;28;20025;-49
2021/10/04 02:32:45;;;;;;;15.18;8.95;;;13.40;94.50;;;;;;5011540;28;20486;-49
2021/10/04 02:35:11;;;;;;;12.82;9.25;;;13.10;94.70;;;;;;5011838;28;20037;-50
2021/10/04 02:37:38;;;;;;;14.95;8.98;;;13.10;95.00;;;;;;5009314;28;20030;-50
2021/10/04 02:40:06;;;;;;;16.00;11.13;;;13.10;95.10;;;;;;5010856;28;20107;-49
2021/10/04 02:42:32;;;;;;;17.58;9.50;;;13.00;95.20;;;;;;5006894;28;20022;-51
2021/10/04 02:44:59;;;;;;;13.63;9.50;;;13.00;95.20;;;;;;5011263;28;20042;-48
2021/10/04 02:47:25;;;;;;;15.07;10.32;;;12.90;95.30;;;;;;5011742;28;20030;-50
2021/10/04 02:49:51;;;;;;;17.30;10.18;;;12.90;95.50;;;;;;5012769;28;20025;-48
2021/10/04 02:52:17;;;;;;;16.63;10.02;;;13.10;95.20;;;;;;4992781;28;20041;-51
2021/10/04 02:54:45;;;;;;;14.13;9.82;;;13.00;95.10;;;;;;5011277;28;20029;-49
2021/10/04 02:57:11;;;;;;;14.27;9.57;;;13.10;95.00;;;;;;5008391;28;20038;-50
2021/10/04 02:59:37;;;;;;;16.40;10.38;;;13.10;94.90;;;;;;5011406;28;20456;-48
2021/10/04 03:02:03;;;;;;;20.00;11.25;;;13.00;94.90;;;;;;5010259;28;20077;-50
2021/10/04 03:04:28;;;;;;;17.60;10.95;;;13.10;94.70;;;;;;4961466;28;20105;-50
2021/10/04 03:06:54;;;;;;;15.80;10.43;;;13.00;94.70;;;;;;4960730;28;20038;-50
2021/10/04 03:09:20;;;;;;;17.02;11.20;;;13.00;94.80;;;;;;5010202;28;20065;-50
2021/10/04 03:11:46;;;;;;;18.10;12.20;;;13.00;94.90;;;;;;5010259;28;20029;-49
2021/10/04 03:14:12;;;;;;;16.88;11.88;;;13.00;95.00;;;;;;5010684;28;20053;-50
2021/10/04 03:16:37;;;;;;;20.27;13.23;;;13.10;94.90;;;;;;5008506;28;20037;-50
2021/10/04 03:19:03;;;;;;;16.48;12.90;;;13.00;94.90;;;;;;4974275;28;20552;-49
2021/10/04 03:21:29;;;;;;;14.93;11.73;;;12.90;95.00;;;;;;5010861;28;20034;-50
2021/10/04 03:23:55;;;;;;;13.07;11.07;;;12.80;95.10;;;;;;4983696;28;20095;-49
2021/10/04 03:26:21;;;;;;;15.77;11.75;;;12.70;95.20;;;;;;5008572;28;20382;-49
2021/10/04 03:28:46;;;;;;;17.85;11.85;;;12.40;95.70;;;;;;4950377;28;20076;-50
2021/10/04 03:31:12;;;;;;;14.48;11.10;;;12.10;96.30;;;;;;5009271;28;20030;-49
2021/10/04 03:33:38;;;;;;;19.00;11.23;;;11.90;97.00;;;;;;5010252;28;20038;-51
2021/10/04 03:36:04;;;;;;;16.23;11.63;;;12.00;96.90;;;;;;5010890;28;20095;-48
2021/10/04 03:38:31;;;;;;;15.35;10.90;;;12.20;96.60;;;;;;5010214;28;20398;-51
2021/10/04 03:40:56;;;;;;;16.13;10.15;;;12.30;96.10;;;;;;5011288;28;20040;-51
2021/10/04 03:43:22;;;;;;;14.25;10.45;;;12.40;95.90;;;;;;5006365;28;20029;-48
2021/10/04 03:45:48;;;;;;;15.95;10.57;;;12.30;95.90;;;;;;5011886;28;20366;-48
2021/10/04 03:48:14;;;;;;;17.02;11.30;;;12.00;96.10;;;;;;5009844;28;20026;-51
2021/10/04 03:50:40;;;;;;;14.82;11.35;;;12.00;95.80;;;;;;4992030;28;20053;-49
2021/10/04 03:53:06;;;;;;;21.33;10.52;;;11.90;96.00;;;;;;4993360;28;20045;-48
2021/10/04 03:55:32;;;;;;;17.15;11.45;;;12.20;95.90;;;;;;4990382;28;20077;-47
2021/10/04 03:57:58;;;;;;;15.57;10.95;;;11.90;96.30;;;;;;5012684;28;20053;-51
2021/10/04 04:00:27;;;;;;;17.30;11.45;;;11.90;96.50;;;;;;5008066;28;20068;-49
2021/10/04 04:02:54;;;;;;;18.88;11.95;;;12.10;96.10;;;;;;5009498;28;20030;-49
2021/10/04 04:05:19;;;;;;;23.48;12.27;;;12.00;96.30;;;;;;5010005;28;20030;-50
2021/10/04 04:07:45;;;;;;;15.73;11.20;;;11.80;96.50;;;;;;5013456;28;20037;-48
2021/10/04 04:10:13;;;;;;;16.65;11.38;;;11.50;99.90;;;;;;5014545;28;20033;-49
2021/10/04 04:12:39;;;;;;;16.60;12.23;;;11.40;97.90;;;;;;5009733;28;20041;-50
2021/10/04 04:15:06;;;;;;;19.05;12.90;;;11.30;99.30;;;;;;5014844;28;20030;-50
2021/10/04 04:17:32;;;;;;;17.52;12.25;;;11.20;98.70;;;;;;5014446;28;20038;-51
2021/10/04 04:19:58;;;;;;;15.05;11.15;;;11.40;98.40;;;;;;5015154;28;20053;-49
2021/10/04 04:22:24;;;;;;;18.42;11.38;;;11.60;97.90;;;;;;4981368;28;20037;-50
2021/10/04 04:24:50;;;;;;;15.63;12.32;;;11.60;97.90;;;;;;5014256;28;20018;-49
2021/10/04 04:27:16;;;;;;;15.35;11.07;;;11.70;97.90;;;;;;5013027;28;20030;-48
2021/10/04 04:29:42;;;;;;;17.23;11.85;;;11.70;97.90;;;;;;4962781;28;20122;-48
2021/10/04 04:32:10;;;;;;;15.98;12.13;;;11.80;97.90;;;;;;4995611;28;20140;-50
2021/10/04 04:34:36;;;;;;;15.55;11.30;;;11.80;97.90;;;;;;5013073;28;20091;-47
2021/10/04 04:37:04;;;;;;;17.65;12.07;;;11.70;98.10;;;;;;5013082;28;20038;-48
2021/10/04 04:39:31;;;;;;;15.73;11.35;;;11.30;98.70;;;;;;5011094;28;20117;-48
2021/10/04 04:41:56;;;;;;;16.35;12.43;;;10.90;99.90;;;;;;5013728;28;20046;-48
2021/10/04 04:44:23;;;;;;;15.90;11.85;;;10.90;99.90;;;;;;5012987;28;20033;-48
2021/10/04 04:46:50;;;;;;;18.33;11.75;;;10.90;99.90;;;;;;5012637;28;20054;-48
2021/10/04 04:49:17;;;;;;;15.32;11.85;;;10.90;99.90;;;;;;5014870;28;20033;-53
2021/10/04 04:51:43;;;;;;;17.23;11.68;;;10.80;99.90;;;;;;5012467;28;20145;-50
2021/10/04 04:54:09;;;;;;;19.42;11.65;;;10.70;99.90;;;;;;5013866;28;20486;-50
2021/10/04 04:56:35;;;;;;;16.30;11.20;;;11.00;99.70;;;;;;5013938;28;20026;-49
2021/10/04 04:59:01;;;;;;;19.58;12.48;;;10.90;99.80;;;;;;5011587;28;20028;-50
2021/10/04 05:01:27;;;;;;;18.65;12.30;;;10.90;99.90;;;;;;5015481;28;20109;-48
2021/10/04 05:03:53;;;;;;;22.90;13.05;;;11.10;99.90;;;;;;5012806;28;20069;-50
2021/10/04 05:06:19;;;;;;;16.80;12.52;;;11.10;99.90;;;;;;5012515;28;20449;-50
2021/10/04 05:08:44;;;;;;;16.58;11.38;;;11.00;99.90;;;;;;5013603;28;20033;-50
2021/10/04 05:11:10;;;;;;;14.98;11.90;;;10.80;99.90;;;;;;5010411;28;20470;-50
2021/10/04 05:13:36;;;;;;;15.15;11.70;;;10.70;99.90;;;;;;4997096;28;20379;-50
2021/10/04 05:16:02;;;;;;;15.50;11.65;;;11.00;99.90;;;;;;5012192;28;20104;-47
2021/10/04 05:18:28;;;;;;;18.50;11.10;;;11.10;99.90;;;;;;5013082;28;20030;-49
2021/10/04 05:20:54;;;;;;;15.52;11.05;;;11.60;99.90;;;;;;5013492;28;20034;-50
2021/10/04 05:23:20;;;;;;;16.50;11.73;;;11.60;99.90;;;;;;4995852;28;20442;-49
2021/10/04 05:25:45;;;;;;;21.50;12.35;;;11.50;99.90;;;;;;5015050;28;20529;-50
2021/10/04 05:28:11;;;;;;;14.50;11.60;;;11.80;99.90;;;;;;5013874;28;20038;-50
2021/10/04 05:30:37;;;;;;;18.83;11.30;;;11.90;99.90;;;;;;5012429;28;20036;-47
2021/10/04 05:33:03;;;;;;;15.48;11.20;;;12.20;99.80;;;;;;5009882;28;20038;-48
2021/10/04 05:35:29;;;;;;;14.88;11.55;;;12.40;99.20;;;;;;4992420;28;20121;-50
2021/10/04 05:37:56;;;;;;;15.00;11.18;;;12.40;99.00;;;;;;4995740;28;20444;-49
2021/10/04 05:40:22;;;;;;;21.08;12.32;;;12.60;98.90;;;;;;5011473;28;20525;-51
2021/10/04 05:42:48;;;;;;;15.18;12.13;;;12.70;98.80;;;;;;4996099;28;20069;-48
2021/10/04 05:45:15;;;;;;;16.05;11.48;;;12.90;98.60;;;;;;5006666;28;20113;-48
2021/10/04 05:47:43;;;;;;;18.08;12.07;;;13.10;98.50;;;;;;5005862;28;20050;-50
2021/10/04 05:50:10;;;;;;;16.42;11.68;;;13.30;98.90;;;;;;5014749;28;20036;-48
2021/10/04 05:52:36;;;;;;;14.55;11.18;;;13.40;98.40;;;;;;5011751;28;20038;-48
2021/10/04 05:55:03;;;;;;;13.88;10.55;;;13.60;98.40;;;;;;5011285;28;20025;-49
2021/10/04 05:57:29;;;;;;;17.50;12.10;;;13.80;98.70;;;;;;5007072;28;20029;-50
2021/10/04 05:59:55;;;;;;;17.42;11.23;;;13.70;98.50;;;;;;4994685;28;20033;-49
2021/10/04 06:02:21;;;;;;;19.23;11.77;;;14.20;99.90;;;;;;5005368;28;20681;-50
2021/10/04 06:04:47;;;;;;;16.70;11.68;;;14.60;98.70;;;;;;5010303;28;20046;-48
2021/10/04 06:07:13;;;;;;;15.00;12.32;;;15.10;99.10;;;;;;5010384;28;20079;-50
2021/10/04 06:09:39;;;;;;;18.40;10.82;;;15.60;98.60;;;;;;5000612;28;20033;-48
2021/10/04 06:12:05;;;;;;;17.45;12.52;;;16.00;98.00;;;;;;5005410;28;20045;-49
2021/10/04 06:14:31;;;;;;;18.92;12.20;;;16.50;96.90;;;;;;5011238;28;20628;-50
2021/10/04 06:16:57;;;;;;;16.33;12.23;;;16.90;97.30;;;;;;4992348;28;20037;-48
2021/10/04 06:19:22;;;;;;;14.40;12.80;;;17.30;96.10;;;;;;5013071;28;20026;-50
2021/10/04 06:21:49;;;;;;;18.00;12.98;;;;;;;;;;5008805;28;20034;-49
2021/10/04 06:24:15;;;;;;;18.83;13.80;;;17.50;93.10;;;;;;5009150;28;20034;-48
2021/10/04 06:26:41;;;;;;;28.15;16.35;;;18.20;94.30;;;;;;4991915;28;20053;-49
2021/10/04 06:29:06;;;;;;;21.25;16.58;;;18.60;93.30;;;;;;5011156;28;20122;-51
2021/10/04 06:31:32;;;;;;;19.15;14.77;;;18.40;93.00;;;;;;4991311;28;20038;-50
2021/10/04 06:33:58;;;;;;;25.40;13.43;;;18.40;92.40;;;;;;5011258;28;20048;-49
2021/10/04 06:36:24;;;;;;;18.42;12.80;;;18.90;92.30;;;;;;5012444;28;20213;-49
2021/10/04 06:38:51;;;;;;;17.02;11.68;;;19.20;91.10;;;;;;5012590;28;20461;-50
2021/10/04 06:41:17;;;;;;;15.63;10.45;;;20.20;91.30;;;;;;4991445;28;20143;-50
2021/10/04 06:43:44;;;;;;;15.82;11.35;;;21.10;90.50;;;;;;4968460;28;20042;-51
2021/10/04 06:46:09;;;;;;;16.83;11.20;;;21.90;89.20;;;;;;4961620;28;20037;-51
2021/10/04 06:48:37;;;;;;;14.43;9.77;;;22.30;86.40;;;;;;5010376;28;20469;-50
2021/10/04 06:51:03;;;;;;;13.23;10.25;;;;;;;;;;5011483;28;20034;-50
2021/10/04 06:53:28;;;;;;;14.73;9.77;;;23.20;83.10;;;;;;5011922;28;20099;-50
2021/10/04 06:55:54;;;;;;;16.25;9.75;;;24.20;80.60;;;;;;4990482;28;20480;-51
2021/10/04 06:58:20;;;;;;;14.48;9.60;;;24.00;80.60;;;;;;4993003;28;20042;-51
2021/10/04 07:00:46;;;;;;;16.40;10.07;;;24.60;79.90;;;;;;5009935;28;20034;-51
2021/10/04 07:03:12;;;;;;;14.30;9.02;;;;;;;;;;5012223;28;20088;-50
2021/10/04 07:05:37;;;;;;;17.40;11.02;;;26.30;75.80;;;;;;5008411;28;20068;-50
2021/10/04 07:08:04;;;;;;;13.60;9.85;;;;;;;;;;4985867;28;20069;-51
2021/10/04 07:10:30;;;;;;;13.13;9.23;;;;;;;;;;4989016;28;20442;-50
2021/10/04 07:12:56;;;;;;;15.43;9.95;;;;;;;;;;5007820;28;20054;-51
2021/10/04 07:15:22;;;;;;;16.80;10.13;;;28.50;88.60;;;;;;4993121;28;20042;-50
2021/10/04 07:17:48;;;;;;;13.43;10.00;;;;;;;;;;5009999;28;20470;-50
2021/10/04 07:20:14;;;;;;;11.20;8.65;;;29.50;68.80;;;;;;4990158;28;20038;-51
2021/10/04 07:22:41;;;;;;;12.38;9.75;;;;;;;;;;5007820;28;20022;-51
2021/10/04 07:25:08;;;;;;;14.80;10.23;;;;;;;;;;5011363;28;20034;-50
2021/10/04 07:27:34;;;;;;;15.02;9.20;;;;;;;;;;4992716;28;20462;-51
2021/10/04 07:30:00;;;;;;;14.45;9.10;;;31.30;77.60;;;;;;4987208;28;20038;-51
2021/10/04 07:32:26;;;;;;;13.55;8.88;;;;;;;;;;4986770;28;20042;-51
2021/10/04 07:34:53;;;;;;;13.48;8.90;;;;;;;;;;4984087;28;20038;-51
2021/10/04 07:37:19;;;;;;;12.30;9.05;;;;;;;;;;4988943;28;20035;-52
2021/10/04 07:39:44;;;;;;;13.40;9.82;;;32.20;78.30;;;;;;4989340;28;20066;-50
2021/10/04 07:42:10;;;;;;;12.32;9.40;;;32.90;68.30;;;;;;4986706;28;20081;-52
2021/10/04 07:44:36;;;;;;;12.55;9.05;;;;;;;;;;4974515;28;20035;-51
2021/10/04 07:47:03;;;;;;;12.90;9.93;;;33.20;94.70;;;;;;4984633;28;20125;-52
2021/10/04 07:49:30;;;;;;;12.32;9.13;;;33.20;62.10;;;;;;4986626;28;20039;-51
2021/10/04 07:51:58;;;;;;;11.13;8.65;;;33.00;61.30;;;;;;4986024;28;20027;-51
2021/10/04 07:54:25;;;;;;;12.43;9.05;;;32.80;61.00;;;;;;4984243;28;20167;-50
2021/10/04 07:56:51;;;;;;;12.45;9.07;;;33.10;61.00;;;;;;4958804;28;20120;-51
2021/10/04 07:59:16;;;;;;;11.02;8.52;;;33.60;59.90;;;;;;4970111;28;20490;-50
2021/10/04 08:01:42;;;;;;;13.02;9.32;;;;;;;;;;5002457;28;20042;-52
2021/10/04 08:04:10;;;;;;;12.55;9.23;;;;;;;;;;4993684;28;20545;-50
2021/10/04 08:06:36;;;;;;;21.40;12.13;;;34.30;59.30;;;;;;5010410;28;20458;-51
2021/10/04 08:09:02;;;;;;;18.30;14.65;;;;;;;;;;5010059;28;20088;-51
2021/10/04 08:11:28;;;;;;;17.25;13.95;;;;;;;;;;4991783;28;20077;-51
2021/10/04 08:13:54;;;;;;;11.65;9.80;;;;;;;;;;5008489;28;20099;-53
2021/10/04 08:16:24;;;;;;;15.27;9.32;;;;;;;;;;5007377;28;20549;-52
2021/10/04 08:18:53;;;;;;;13.23;10.38;;;;;;;;;;5008109;28;20041;-50
2021/10/04 08:21:20;;;;;;;15.32;10.13;;;;;;;;;;5009359;28;20038;-50
2021/10/04 08:23:46;;;;;;;18.42;10.93;;;35.40;91.40;;;;;;5008037;28;20079;-53
2021/10/04 08:26:13;;;;;;;14.70;10.95;;;35.70;73.50;;;;;;4990898;28;20478;-50
2021/10/04 08:28:39;;;;;;;15.13;9.52;;;35.30;73.80;;;;;;5011138;28;20048;-53
2021/10/04 08:31:05;;;;;;;12.32;9.30;;;35.60;81.30;;;;;;5006376;28;20112;-51
2021/10/04 08:33:32;;;;;;;14.55;10.20;;;36.00;70.80;;;;;;5005384;28;20084;-51
2021/10/04 08:35:58;;;;;;;17.27;9.50;;;35.90;57.50;;;;;;5002289;28;20046;-53
2021/10/04 08:38:28;;;;;;;23.85;11.85;;;35.90;58.10;;;;;;4988955;28;20041;-51
2021/10/04 08:40:54;;;;;;;14.57;9.50;;;36.00;58.90;;;;;;5001177;28;20035;-52
2021/10/04 08:43:20;;;;;;;20.17;10.85;;;36.20;57.10;;;;;;5008473;28;20076;-51
2021/10/04 08:45:46;;;;;;;13.75;8.88;;;35.60;57.20;;;;;;5009737;28;20462;-49
2021/10/04 08:48:13;;;;;;;16.70;10.13;;;35.70;57.10;;;;;;5010421;28;20022;-50
2021/10/04 08:50:40;;;;;;;16.30;8.60;;;34.90;57.50;;;;;;5005113;28;20029;-49
2021/10/04 08:53:06;;;;;;;14.40;8.95;;;35.50;57.60;;;;;;5009830;28;20037;-51
2021/10/04 08:55:34;;;;;;;15.77;8.32;;;35.90;57.40;;;;;;5011728;28;20037;-50
2021/10/04 08:58:07;;;;;;;14.95;7.90;;;35.60;57.00;;;;;;5014357;28;20036;-51
2021/10/04 09:00:33;;;;;;;13.25;7.90;;;34.80;56.30;;;;;;5013359;28;20022;-50
2021/10/04 09:03:03;;;;;;;16.90;7.35;;;35.40;57.40;;;;;;4977024;28;20034;-49
2021/10/04 09:05:30;;;;;;;20.88;8.75;;;35.30;56.50;;;;;;5010473;28;20121;-50
2021/10/04 09:08:00;;;;;;;13.25;8.35;;;35.70;57.10;;;;;;4993934;28;20181;-50
2021/10/04 09:10:32;;;;;;;13.02;8.38;;;36.10;62.80;;;;;;4993485;28;20485;-50
2021/10/04 09:12:59;;;;;;;14.60;7.95;;;35.70;55.90;;;;;;4974586;28;20199;-51
2021/10/04 09:15:26;;;;;;;13.23;7.95;;;;;;;;;;4974140;28;20050;-50
2021/10/04 09:17:52;;;;;;;14.75;8.23;;;34.80;57.10;;;;;;4974541;28;20067;-49
2021/10/04 09:20:19;;;;;;;15.85;7.68;;;34.90;57.20;;;;;;4974380;28;20408;-49
2021/10/04 09:22:45;;;;;;;12.10;8.20;;;35.20;56.20;;;;;;4974713;28;20038;-50
2021/10/04 09:25:11;;;;;;;12.65;7.95;;;35.40;57.60;;;;;;4926196;28;20133;-50
2021/10/04 09:27:47;;;;;;;12.50;8.40;;;34.90;55.80;;;;;;4973738;28;20135;-50
2021/10/04 09:30:24;;;;;;;13.23;8.73;;;34.70;56.50;;;;;;4969080;28;20060;-51
2021/10/04 09:32:52;;;;;;;16.13;8.00;;;35.70;57.10;;;;;;4990121;28;20042;-51
2021/10/04 09:35:21;;;;;;;13.75;8.35;;;35.50;56.40;;;;;;4971250;28;20124;-49
2021/10/04 09:37:53;;;;;;;14.50;8.10;;;35.80;57.50;;;;;;4949833;28;20031;-51
2021/10/04 09:40:33;;;;;;;13.00;8.10;;;36.00;56.60;;;;;;5005807;28;20026;-51
2021/10/04 09:43:03;;;;;;;15.25;8.00;;;36.00;55.90;;;;;;5010794;28;20026;-49
2021/10/04 09:45:29;;;;;;;10.80;7.90;;;35.80;56.10;;;;;;5007985;28;20030;-50
2021/10/04 09:47:56;;;;;;;11.68;7.47;;;35.00;57.40;;;;;;5005171;28;20052;-51
2021/10/04 09:50:29;;;;;;;12.05;8.18;;;34.90;56.90;;;;;;5013799;28;20467;-51
2021/10/04 09:53:01;;;;;;;11.07;6.97;;;35.60;56.20;;;;;;5013653;28;20029;-49
2021/10/04 09:55:39;;;;;;;12.82;6.63;;;35.20;57.70;;;;;;5012042;28;20478;-50
2021/10/04 09:58:13;;;;;;;11.57;6.78;;;35.20;55.90;;;;;;4994319;28;20038;-50
2021/10/04 10:00:46;;;;;;;11.63;6.32;;;35.10;55.90;;;;;;5012915;28;20042;-51
2021/10/04 10:03:14;;;;;;;13.85;6.15;;;35.90;56.00;;;;;;5010335;28;20088;-51
2021/10/04 10:05:50;;;;;;;10.30;6.93;;;35.80;56.90;;;;;;5009679;28;20022;-51
2021/10/04 10:08:19;;;;;;;11.35;6.70;;;36.20;56.30;;;;;;5014156;28;20121;-49
2021/10/04 10:10:46;;;;;;;8.95;6.47;;;36.50;55.90;;;;;;5009936;28;20464;-50
2021/10/04 10:13:14;;;;;;;9.90;7.35;;;36.30;56.20;;;;;;4990612;28;20049;-51
2021/10/04 10:15:42;;;;;;;8.15;6.45;;;36.70;55.70;;;;;;5003915;28;20046;-51
2021/10/04 10:18:23;;;;;;;8.13;5.82;;;36.20;55.40;;;;;;5011162;28;20026;-50
2021/10/04 10:21:03;;;;;;;9.18;6.22;;;35.90;55.50;;;;;;5007260;28;20050;-51
2021/10/04 10:23:45;;;;;;;13.23;7.00;;;;;;;;;;5013011;28;20052;-52
2021/10/04 10:26:41;;;;;;;11.07;7.72;;;36.80;54.80;;;;;;5011636;28;20028;-50
2021/10/04 10:29:13;;;;;;;9.05;7.85;;;36.40;55.10;;;;;;4935734;29;20036;-50
2021/10/04 10:31:50;;;;;;;11.82;8.18;;;36.50;55.10;;;;;;4936616;29;20040;-50
2021/10/04 10:34:34;;;;;;;11.00;7.80;;;36.60;56.00;;;;;;4940864;29;20499;-50
2021/10/04 10:37:07;;;;;;;10.90;7.97;;;36.80;56.20;;;;;;4934811;29;20063;-51
2021/10/04 10:39:34;;;;;;;17.33;8.30;;;;;;;;;;4921412;29;20373;-49
2021/10/04 10:42:12;;;;;;;15.43;8.32;;;35.50;55.00;;;;;;4934651;29;20031;-52
2021/10/04 10:44:59;;;;;;;11.85;8.18;;;35.70;56.70;;;;;;4937365;29;20134;-52
2021/10/04 10:47:36;;;;;;;8.98;7.68;;;35.60;55.20;;;;;;4937729;29;20028;-51
2021/10/04 10:50:15;;;;;;;13.70;8.32;;;36.20;55.40;;;;;;4937017;29;20039;-51
2021/10/04 10:52:43;;;;;;;9.05;8.05;;;36.20;54.90;;;;;;4938942;29;20039;-50
2021/10/04 10:55:18;;;;;;;12.77;7.40;;;35.70;55.30;;;;;;4935248;29;20036;-51
2021/10/04 11:00:34;;;;;;;10.68;7.38;;;36.00;56.30;;;;;;4934101;29;20028;-51
2021/10/04 11:03:00;;;;;;;13.15;8.25;;;36.30;56.50;;;;;;4933932;29;20035;-52
2021/10/04 11:05:38;;;;;;;10.65;7.95;;;;;;;;;;4969737;28;20034;-49
2021/10/04 11:08:15;;;;;;;9.77;7.80;;;35.70;65.70;;;;;;5010127;28;20486;-51
2021/10/04 11:10:49;;;;;;;9.32;6.68;;;34.90;57.60;;;;;;5009197;28;20037;-52
2021/10/04 11:13:34;;;;;;;14.95;7.30;;;35.10;57.20;;;;;;5006443;28;20073;-52
2021/10/04 11:16:20;;;;;;;9.15;6.75;;;;;;;;;;5009989;28;20033;-50
2021/10/04 11:18:47;;;;;;;11.43;7.07;;;;;;;;;;4998953;28;20054;-51
2021/10/04 11:21:15;;;;;;;10.30;7.53;;;;;;;;;;5009596;28;20037;-51
2021/10/04 11:23:46;;;;;;;7.97;6.85;;;;;;;;;;5009981;28;20049;-51
2021/10/04 11:26:14;;;;;;;10.40;7.05;;;;;;;;;;5009345;28;20025;-51
2021/10/04 11:28:42;;;;;;;9.32;6.40;;;33.50;67.20;;;;;;5010613;28;20470;-51
2021/10/04 11:31:12;;;;;;;9.07;6.60;;;33.90;64.00;;;;;;5021080;28;20121;-49
2021/10/04 11:34:02;;;;;;;9.65;6.63;;;34.60;63.90;;;;;;5006973;28;20049;-49
2021/10/04 11:36:53;;;;;;;11.57;7.20;;;34.80;58.40;;;;;;4972499;28;20027;-50
2021/10/04 11:39:20;;;;;;;8.63;6.45;;;35.10;62.30;;;;;;4966775;28;20472;-51
2021/10/04 11:41:52;;;;;;;13.77;6.53;;;34.90;70.80;;;;;;4969671;28;20075;-50
2021/10/04 11:44:23;;;;;;;11.73;6.03;;;34.70;61.50;;;;;;4954628;28;20038;-49
2021/10/04 11:46:54;;;;;;;9.57;6.35;;;33.90;57.50;;;;;;4956373;28;20035;-54
2021/10/04 11:49:23;;;;;;;11.25;6.50;;;33.50;57.70;;;;;;4960799;28;20039;-50
2021/10/04 11:51:55;;;;;;;12.77;6.85;;;33.50;58.90;;;;;;4943147;28;20043;-51
2021/10/04 11:54:42;;;;;;;11.57;6.63;;;33.50;58.80;;;;;;4957518;28;20154;-51
2021/10/04 11:57:29;;;;;;;9.18;6.50;;;33.40;58.50;;;;;;4962273;28;20062;-51
2021/10/04 11:59:57;;;;;;;9.48;5.72;;;33.40;65.70;;;;;;4956923;28;20146;-50
2021/10/04 12:02:23;;;;;;;9.20;5.80;;;;;;;;;;4970068;28;20035;-51
2021/10/04 12:04:50;;;;;;;9.75;6.15;;;32.90;58.70;;;;;;4972319;28;20031;-51
2021/10/04 12:07:20;;;;;;;7.95;5.82;;;33.20;59.50;;;;;;4938386;28;20042;-51
2021/10/04 12:09:54;;;;;;;10.20;6.43;;;33.10;58.30;;;;;;4961680;28;20034;-49
2021/10/04 12:12:20;;;;;;;12.98;6.05;;;32.60;58.30;;;;;;4961497;28;20059;-52
2021/10/04 12:14:46;;;;;;;9.57;5.78;;;32.90;60.20;;;;;;5002574;28;20068;-52
2021/10/04 12:17:12;;;;;;;8.85;5.28;;;32.60;67.70;;;;;;4996942;28;20029;-51
2021/10/04 12:19:38;;;;;;;7.20;5.28;;;32.70;66.40;;;;;;5029573;28;20379;-51
2021/10/04 12:22:04;;;;;;;9.43;5.82;;;32.80;65.40;;;;;;5009168;28;20037;-49
2021/10/04 12:24:39;;;;;;;8.13;6.43;;;32.80;65.50;;;;;;5004282;28;20045;-51
2021/10/04 12:27:09;;;;;;;13.77;6.88;;;;;;;;;;5012418;28;20033;-50
2021/10/04 12:29:37;;;;;;;9.27;6.20;;;;;;;;;;5016370;28;20492;-51
2021/10/04 12:32:25;;;;;;;8.13;6.68;;;32.10;58.50;;;;;;4998744;28;20052;-50
2021/10/04 12:35:18;;;;;;;17.38;13.07;;;31.80;59.10;;;;;;5012690;28;20042;-49
2021/10/04 12:37:58;;;;;;;17.60;11.25;;;31.80;59.40;;;;;;5007776;28;20034;-47
2021/10/04 12:40:32;;;;;;;63.35;39.67;;;32.30;72.50;;;;;;4996955;28;20050;-46
2021/10/04 12:43:11;;;;;;;12.30;8.65;;;;;;;;;;4997367;28;20029;-46
2021/10/04 12:45:38;;;;;;;14.02;8.82;;;31.80;58.80;;;;;;4999228;28;20034;-48
2021/10/04 12:48:05;;;;;;;38.95;26.77;;;31.70;59.60;;;;;;5007953;28;20081;-46
2021/10/04 12:50:35;;;;;;;34.55;20.23;;;32.00;61.00;;;;;;4998293;28;20049;-47
2021/10/04 12:53:24;;;;;;;15.98;8.60;;;31.70;59.20;;;;;;4998679;28;20034;-48